Time;durP1;ratioP1;P1;durP2;ratioP2;P2;SDS_P1;SDS_P2;PMS_P1;PMS_P2;Temp;Humidity;BMP_temperature;BMP_pressure;BME280_temperature;BME280_humidity;BME280_pressure;Samples;Min_cycle;Max_cycle;Signal;HPM_P1;HPM_P2
2021/01/18 00:01:56;;;;;;;84.53;29.00;;;;;;;0.64;100.00;101808.50;6239628;28;20046;-73
2021/01/18 00:04:57;;;;;;;89.47;28.90;;;;;;;0.67;100.00;101812.78;6249734;28;20053;-73
2021/01/18 00:07:57;;;;;;;76.68;27.23;;;;;;;0.70;100.00;101810.25;6249336;28;20050;-73
2021/01/18 00:10:59;;;;;;;88.65;28.15;;;;;;;0.70;100.00;101812.81;6248861;28;20049;-73
2021/01/18 00:14:00;;;;;;;82.05;27.13;;;;;;;1.07;100.00;101816.41;6249623;28;20045;-73
2021/01/18 00:17:05;;;;;;;77.45;26.40;;;;;;;0.86;100.00;101812.00;6247219;28;20049;-73
2021/01/18 00:20:07;;;;;;;88.95;27.15;;;;;;;0.84;100.00;101810.28;6249372;28;20053;-73
2021/01/18 00:23:08;;;;;;;82.85;27.23;;;;;;;1.17;100.00;101812.97;6234164;28;20054;-73
2021/01/18 00:26:09;;;;;;;65.38;23.80;;;;;;;1.34;100.00;101815.59;6224274;28;20088;-73
2021/01/18 00:29:11;;;;;;;71.38;23.85;;;;;;;1.04;100.00;101818.97;6224141;28;20061;-73
2021/01/18 00:32:12;;;;;;;73.38;25.00;;;;;;;1.06;100.00;101819.00;6225350;28;20108;-72
2021/01/18 00:35:15;;;;;;;82.45;25.02;;;;;;;1.35;100.00;101825.09;6224266;28;20507;-73
2021/01/18 00:38:16;;;;;;;82.30;24.92;;;;;;;1.24;100.00;101819.91;6224126;28;20054;-73
2021/01/18 00:41:16;;;;;;;85.97;24.88;;;;;;;1.27;100.00;101822.50;6224005;28;20253;-72
2021/01/18 00:44:18;;;;;;;86.60;25.77;;;;;;;1.22;100.00;101824.19;6224097;28;20065;-73
2021/01/18 00:47:19;;;;;;;88.53;26.55;;;;;;;1.46;100.00;101828.59;6224988;28;20057;-73
2021/01/18 00:50:21;;;;;;;83.85;23.92;;;;;;;1.44;100.00;101827.69;6223575;28;20049;-73
2021/01/18 00:53:22;;;;;;;79.05;24.10;;;;;;;1.46;100.00;101831.19;6223602;28;20411;-73
2021/01/18 00:56:23;;;;;;;85.38;23.05;;;;;;;1.42;100.00;101834.63;6223511;28;20050;-73
2021/01/18 00:59:24;;;;;;;85.65;21.73;;;;;;;1.64;100.00;101827.75;6223488;28;20408;-73
2021/01/18 01:02:25;;;;;;;80.03;22.25;;;;;;;1.62;100.00;101824.28;6225485;28;20049;-73
2021/01/18 01:05:28;;;;;;;82.30;21.60;;;;;;;1.67;100.00;101829.47;6247930;28;20099;-73
2021/01/18 01:08:29;;;;;;;68.82;21.38;;;;;;;1.81;100.00;101822.56;6247825;28;20053;-73
2021/01/18 01:11:30;;;;;;;69.97;20.48;;;;;;;1.84;100.00;101824.28;6247539;28;20498;-74
2021/01/18 01:14:31;;;;;;;64.72;20.58;;;;;;;1.69;100.00;101823.44;6248305;28;20057;-73
2021/01/18 01:17:32;;;;;;;95.55;20.50;;;;;;;1.83;100.00;101825.16;6247337;28;20080;-73
2021/01/18 01:20:33;;;;;;;61.20;19.77;;;;;;;1.80;100.00;101831.19;6223812;28;20054;-73
2021/01/18 01:23:34;;;;;;;69.53;19.45;;;;;;;1.74;100.00;101815.66;6222919;28;20111;-73
2021/01/18 01:26:35;;;;;;;65.13;19.13;;;;;;;1.90;100.00;101812.19;6222998;28;20072;-73
2021/01/18 01:29:37;;;;;;;59.30;18.42;;;;;;;1.78;100.00;101814.78;6222069;28;20073;-73
2021/01/18 01:32:38;;;;;;;51.72;18.08;;;;;;;1.83;100.00;101815.66;6223428;28;20050;-73
2021/01/18 01:35:39;;;;;;;51.92;16.65;;;;;;;2.10;100.00;101819.97;6242317;28;20490;-73
2021/01/18 01:38:40;;;;;;;84.82;19.10;;;;;;;1.84;100.00;101825.16;6246772;28;20080;-73
2021/01/18 01:41:40;;;;;;;60.33;17.50;;;;;;;2.12;100.00;101819.94;6247459;28;20057;-73
2021/01/18 01:44:42;;;;;;;64.55;17.42;;;;;;;2.15;100.00;101815.63;6247321;28;20061;-73
2021/01/18 01:47:45;;;;;;;58.35;16.25;;;;;;;2.07;100.00;101811.31;6246971;28;20495;-73
2021/01/18 01:50:46;;;;;;;62.90;16.60;;;;;;;2.06;100.00;101810.47;6283630;22;20417;-71
2021/01/18 01:53:47;;;;;;;50.47;15.32;;;;;;;2.12;100.00;101799.22;6247253;28;20056;-69
2021/01/18 01:56:48;;;;;;;54.38;16.10;;;;;;;2.35;100.00;101791.38;6246626;28;20045;-70
2021/01/18 01:59:51;;;;;;;60.20;16.45;;;;;;;2.08;100.00;101803.53;6246650;28;20107;-71
2021/01/18 02:02:52;;;;;;;47.28;16.48;;;;;;;2.42;100.00;101806.06;6246975;28;20103;-69
2021/01/18 02:05:54;;;;;;;51.80;18.23;;;;;;;2.24;100.00;101812.16;6247521;28;20132;-69
2021/01/18 02:08:54;;;;;;;50.70;16.33;;;;;;;2.47;100.00;101806.91;6246351;28;20399;-68
2021/01/18 02:11:55;;;;;;;58.75;17.23;;;;;;;2.49;100.00;101811.22;6246664;28;20053;-70
2021/01/18 02:15:09;;;;;;;66.72;19.42;;;;;;;2.35;100.00;101805.22;6246801;28;20053;-71
2021/01/18 02:18:23;;;;;;;71.30;20.75;;;;;;;2.53;100.00;101806.88;6245610;28;20046;-70
2021/01/18 02:22:01;;;;;;;68.00;19.20;;;;;;;2.55;100.00;101802.56;6252804;28;20054;-69
2021/01/18 02:25:13;;;;;;;69.32;18.13;;;;;;;2.55;100.00;101807.75;6246907;28;20049;-70
2021/01/18 02:28:34;;;;;;;52.08;17.40;;;;;;;2.44;100.00;101797.41;6246195;28;20057;-69
2021/01/18 02:31:52;;;;;;;53.40;16.25;;;;;;;2.37;100.00;101805.22;6246016;28;20049;-69
2021/01/18 02:35:07;;;;;;;44.13;14.20;;;;;;;2.37;100.00;101806.09;6246250;28;20458;-69
2021/01/18 02:38:20;;;;;;;38.88;13.43;;;;;;;2.45;100.00;101799.16;6221688;28;20515;-69
2021/01/18 02:41:34;;;;;;;38.42;12.63;;;;;;;2.64;100.00;101797.34;6221722;28;20058;-70
2021/01/18 02:44:38;;;;;;;33.20;11.27;;;;;;;2.50;100.00;101804.31;6221904;28;20058;-70
2021/01/18 02:47:43;;;;;;;34.13;12.23;;;;;;;2.35;100.00;101806.94;6221668;28;20053;-69
2021/01/18 02:50:45;;;;;;;40.65;11.32;;;;;;;2.33;100.00;101804.34;6228319;28;20053;-71
2021/01/18 02:53:58;;;;;;;30.65;10.77;;;;;;;2.41;100.00;101809.53;6270845;28;20433;-71
2021/01/18 02:56:59;;;;;;;33.08;10.68;;;;;;;2.66;100.00;101805.97;6270660;28;20045;-69
2021/01/18 03:00:04;;;;;;;24.70;8.73;;;;;;;2.58;100.00;101807.72;6270392;28;20053;-69
2021/01/18 03:03:13;;;;;;;32.50;8.85;;;;;;;2.49;100.00;101802.56;6270980;28;20091;-69
2021/01/18 03:06:21;;;;;;;47.97;9.93;;;;;;;2.42;100.00;101803.47;6266666;28;20080;-69
2021/01/18 03:09:30;;;;;;;23.73;8.18;;;;;;;2.47;100.00;101802.59;6245564;28;20418;-69
2021/01/18 03:12:39;;;;;;;39.03;10.07;;;;;;;2.70;100.00;101802.50;6246117;28;20053;-71
2021/01/18 03:15:42;;;;;;;33.47;9.38;;;;;;;2.73;100.00;101801.66;6246010;28;20304;-71
2021/01/18 03:18:46;;;;;;;34.25;12.07;;;;;;;2.62;100.00;101793.88;6245251;28;20045;-69
2021/01/18 03:21:47;;;;;;;44.55;12.40;;;;;;;2.70;100.00;101792.13;6246839;28;20045;-69
2021/01/18 03:24:49;;;;;;;50.90;12.10;;;;;;;2.60;100.00;101803.41;6245797;28;20053;-71
2021/01/18 03:27:52;;;;;;;41.05;12.55;;;;;;;2.87;100.00;101810.22;6245741;28;20050;-71
2021/01/18 03:30:53;;;;;;;41.40;11.98;;;;;;;2.64;100.00;101807.72;6249750;28;20498;-70
2021/01/18 03:33:54;;;;;;;40.33;9.90;;;;;;;2.68;100.00;101805.97;6250554;28;20053;-70
2021/01/18 03:36:55;;;;;;;39.45;9.10;;;;;;;2.91;100.00;101809.34;6249902;28;20140;-71
2021/01/18 03:39:57;;;;;;;36.55;8.68;;;;;;;2.88;100.00;101808.50;6251195;28;20091;-69
2021/01/18 03:42:59;;;;;;;31.85;8.38;;;;;;;2.88;100.00;101804.16;6249730;28;20103;-69
2021/01/18 03:46:00;;;;;;;34.08;9.27;;;;;;;2.79;100.00;101804.22;6249796;28;20076;-70
2021/01/18 03:49:01;;;;;;;43.35;11.77;;;;;;;2.91;100.00;101805.91;6249391;28;20135;-69
2021/01/18 03:52:02;;;;;;;41.38;10.50;;;;;;;2.87;100.00;101804.19;6249717;28;20049;-69
2021/01/18 03:55:05;;;;;;;41.35;11.65;;;;;;;2.88;100.00;101803.31;6249765;28;20522;-71
2021/01/18 03:58:05;;;;;;;40.97;11.88;;;;;;;2.97;100.00;101806.72;6249177;28;20053;-70
2021/01/18 04:01:06;;;;;;;46.80;12.00;;;;;;;2.95;100.00;101799.78;6269269;28;20053;-69
2021/01/18 04:04:07;;;;;;;33.67;11.48;;;;;;;2.99;100.00;101802.38;6274233;28;20137;-69
2021/01/18 04:07:09;;;;;;;47.50;12.70;;;;;;;2.76;100.00;101799.03;6259184;28;20041;-70
2021/01/18 04:10:13;;;;;;;50.53;12.93;;;;;;;2.97;100.00;101808.47;6249081;28;20108;-71
2021/01/18 04:13:13;;;;;;;45.72;12.90;;;;;;;2.83;100.00;101800.72;6249681;28;20056;-69
2021/01/18 04:16:14;;;;;;;47.60;11.65;;;;;;;2.96;100.00;101799.81;6249110;28;20505;-69
2021/01/18 04:19:15;;;;;;;46.88;13.73;;;;;;;2.93;100.00;101801.53;6272829;28;20067;-71
2021/01/18 04:22:16;;;;;;;43.33;11.75;;;;;;;2.98;100.00;101800.66;6249939;28;20059;-68
2021/01/18 04:25:20;;;;;;;45.45;12.02;;;;;;;2.89;100.00;101807.63;6249215;28;20053;-69
2021/01/18 04:28:20;;;;;;;48.80;12.05;;;;;;;3.02;100.00;101799.75;6248869;28;20045;-69
2021/01/18 04:31:21;;;;;;;42.60;12.00;;;;;;;2.78;100.00;101811.13;6249758;28;20124;-69
2021/01/18 04:34:22;;;;;;;45.75;12.88;;;;;;;2.96;100.00;101805.00;6248986;28;20551;-69
2021/01/18 04:37:23;;;;;;;43.85;12.48;;;;;;;2.75;100.00;101797.31;6248485;28;20410;-71
2021/01/18 04:40:26;;;;;;;56.47;11.77;;;;;;;2.87;100.00;101794.66;6247868;28;20127;-69
2021/01/18 04:43:28;;;;;;;48.53;12.55;;;;;;;2.77;100.00;101799.03;6248758;28;20057;-70
2021/01/18 04:46:29;;;;;;;46.05;13.52;;;;;;;2.74;100.00;101790.38;6248769;28;20049;-71
2021/01/18 04:49:32;;;;;;;44.53;11.85;;;;;;;2.95;100.00;101798.09;6248728;28;20095;-69
2021/01/18 04:52:46;;;;;;;47.75;14.43;;;;;;;2.75;100.00;101805.94;6248834;28;20052;-71
2021/01/18 04:56:03;;;;;;;45.25;12.73;;;;;;;2.92;100.00;101798.09;6248441;28;20052;-70
2021/01/18 04:59:11;;;;;;;40.03;11.88;;;;;;;3.08;100.00;101811.84;6248130;28;20049;-70
2021/01/18 05:02:16;;;;;;;46.53;11.10;;;;;;;2.91;100.00;101803.31;6248594;28;20053;-70
2021/01/18 05:05:23;;;;;;;34.88;9.80;;;;;;;2.75;100.00;101818.06;6248441;28;20056;-71
2021/01/18 05:09:14;;;;;;;45.08;9.32;;;;;;;2.78;100.00;101815.47;6248952;28;20392;-69
2021/01/18 05:12:16;;;;;;;51.95;12.13;;;;;;;2.70;100.00;101819.81;6248080;28;20418;-69
2021/01/18 05:15:17;;;;;;;51.72;14.45;;;;;;;2.83;100.00;101813.72;6247805;28;20056;-70
2021/01/18 05:18:24;;;;;;;50.78;14.10;;;;;;;2.73;100.00;101818.06;6246162;28;20045;-71
2021/01/18 05:21:25;;;;;;;36.28;12.63;;;;;;;2.94;100.00;101811.91;6246940;28;20103;-70
2021/01/18 05:24:25;;;;;;;49.15;13.55;;;;;;;2.92;100.00;101813.66;6252325;28;20080;-69
2021/01/18 05:27:27;;;;;;;48.95;13.43;;;;;;;2.94;100.00;101814.50;6272086;28;20045;-70
2021/01/18 05:30:30;;;;;;;40.70;12.70;;;;;;;2.95;100.00;101812.78;6272090;28;20052;-69
2021/01/18 05:33:38;;;;;;;44.58;11.77;;;;;;;2.98;100.00;101821.41;6272239;28;20049;-69
2021/01/18 05:36:40;;;;;;;42.80;12.57;;;;;;;2.98;100.00;101820.56;6271934;28;20516;-68
2021/01/18 05:39:41;;;;;;;39.63;11.30;;;;;;;2.92;100.00;101821.47;6271704;28;20049;-70
2021/01/18 05:42:42;;;;;;;44.90;9.85;;;;;;;2.77;100.00;101821.50;6253444;28;20056;-69
2021/01/18 05:45:45;;;;;;;46.40;9.52;;;;;;;2.93;100.00;101825.78;6247138;28;20045;-70
2021/01/18 05:48:46;;;;;;;39.50;9.80;;;;;;;2.80;100.00;101818.91;6246279;28;20064;-70
2021/01/18 05:51:49;;;;;;;38.55;9.15;;;;;;;2.78;100.00;101823.25;6247199;28;20079;-71
2021/01/18 05:54:50;;;;;;;30.77;10.18;;;;;;;2.71;100.00;101813.75;6247345;28;20081;-71
2021/01/18 05:57:53;;;;;;;43.70;9.68;;;;;;;3.04;100.00;101817.91;6246758;28;20461;-70
2021/01/18 06:00:55;;;;;;;36.50;9.60;;;;;;;2.88;100.00;101824.06;6247477;28;20049;-69
2021/01/18 06:04:06;;;;;;;37.65;12.00;;;;;;;2.73;100.00;101818.06;6246934;28;20077;-70
2021/01/18 06:07:07;;;;;;;38.75;10.57;;;;;;;3.01;100.00;101812.75;6246638;28;20080;-69
2021/01/18 06:10:08;;;;;;;34.67;11.15;;;;;;;3.00;100.00;101811.03;6246456;28;20061;-69
2021/01/18 06:13:22;;;;;;;32.47;11.02;;;;;;;2.99;100.00;101811.88;6246894;28;20490;-69
2021/01/18 06:16:24;;;;;;;29.23;8.98;;;;;;;2.77;100.00;101808.53;6246308;28;20391;-70
2021/01/18 06:19:24;;;;;;;36.88;11.18;;;;;;;2.93;100.00;101817.13;6246912;28;20060;-70
2021/01/18 06:22:27;;;;;;;35.95;8.88;;;;;;;2.78;100.00;101811.13;6246889;28;20049;-69
2021/01/18 06:25:33;;;;;;;38.50;9.52;;;;;;;3.07;100.00;101812.72;6246520;28;20050;-69
2021/01/18 06:28:36;;;;;;;34.55;8.93;;;;;;;3.01;100.00;101812.75;6246166;28;20060;-70
2021/01/18 06:31:45;;;;;;;37.67;9.77;;;;;;;2.93;100.00;101827.50;6246325;28;20057;-70
2021/01/18 06:34:45;;;;;;;32.58;9.75;;;;;;;2.92;100.00;101820.59;6246720;28;20193;-71
2021/01/18 06:37:53;;;;;;;38.78;10.48;;;;;;;2.81;100.00;101831.00;6254949;28;20049;-70
2021/01/18 06:40:58;;;;;;;37.97;9.18;;;;;;;2.86;100.00;101821.50;6270640;28;20418;-70
2021/01/18 06:44:01;;;;;;;39.35;8.55;;;;;;;2.85;100.00;101824.06;6271064;28;20045;-70
2021/01/18 06:47:22;;;;;;;30.90;8.10;;;;;;;2.90;100.00;101823.19;6271005;28;20049;-70
2021/01/18 06:50:31;;;;;;;28.63;9.00;;;;;;;2.73;100.00;101822.41;6248613;28;20470;-70
2021/01/18 06:53:39;;;;;;;34.47;9.27;;;;;;;2.70;100.00;101827.59;6246472;28;20057;-70
2021/01/18 06:57:01;;;;;;;36.35;9.02;;;;;;;2.68;100.00;101837.09;6263223;28;20551;-70
2021/01/18 07:00:05;;;;;;;26.58;8.35;;;;;;;2.66;100.00;101826.75;6270137;28;20417;-70
2021/01/18 07:03:23;;;;;;;46.08;9.95;;;;;;;2.66;100.00;101831.06;6256640;28;20058;-70
2021/01/18 07:06:36;;;;;;;42.87;9.73;;;;;;;2.86;100.00;101826.69;6250672;28;20041;-69
2021/01/18 07:09:37;;;;;;;41.42;9.07;;;;;;;2.73;100.00;101832.78;6252154;28;20053;-70
2021/01/18 07:12:38;;;;;;;37.47;8.73;;;;;;;2.68;100.00;101839.69;6250823;28;20057;-69
2021/01/18 07:15:42;;;;;;;27.98;8.07;;;;;;;2.66;100.00;101842.31;6264600;28;20405;-70
2021/01/18 07:18:49;;;;;;;38.20;8.07;;;;;;;2.63;100.00;101836.25;6264299;28;20049;-70
2021/01/18 07:22:05;;;;;;;32.72;7.25;;;;;;;2.92;100.00;101842.22;6250621;28;20050;-70
2021/01/18 07:25:12;;;;;;;31.38;7.95;;;;;;;2.72;100.00;101836.22;6250679;28;20049;-69
2021/01/18 07:28:14;;;;;;;36.20;8.60;;;;;;;2.72;100.00;101836.22;6271118;28;20476;-68
2021/01/18 07:31:19;;;;;;;34.55;8.07;;;;;;;2.65;100.00;101822.44;6274132;28;20052;-70
2021/01/18 07:34:21;;;;;;;44.60;9.88;;;;;;;2.65;100.00;101831.94;6273011;28;20052;-69
2021/01/18 07:37:25;;;;;;;33.60;10.35;;;;;;;2.78;100.00;101823.25;6272955;28;20461;-70
2021/01/18 07:40:26;;;;;;;37.30;10.48;;;;;;;2.80;100.00;101821.50;6273636;28;20118;-70
2021/01/18 07:43:32;;;;;;;44.08;9.52;;;;;;;2.73;100.00;101822.41;6273429;28;20562;-69
2021/01/18 07:46:40;;;;;;;30.17;9.50;;;;;;;2.89;100.00;101818.88;6248946;28;20045;-70
2021/01/18 07:49:43;;;;;;;38.42;11.40;;;;;;;2.77;100.00;101819.78;6249381;28;20041;-69
2021/01/18 07:52:45;;;;;;;32.00;10.90;;;;;;;2.75;100.00;101818.06;6277114;22;20042;-72
2021/01/18 07:56:01;;;;;;;36.55;12.27;;;;;;;2.78;100.00;101816.31;6231953;28;20041;-72
2021/01/18 07:59:04;;;;;;;38.20;11.77;;;;;;;2.75;100.00;101816.31;6230291;28;20045;-73
2021/01/18 08:02:06;;;;;;;41.15;12.55;;;;;;;2.75;100.00;101821.53;6229639;28;20041;-73
2021/01/18 08:05:20;;;;;;;45.97;13.13;;;;;;;2.79;100.00;101818.03;6239560;28;20049;-73
2021/01/18 08:08:27;;;;;;;43.50;11.77;;;;;;;2.93;100.00;101814.53;6239304;28;20052;-72
2021/01/18 08:11:28;;;;;;;37.10;11.48;;;;;;;3.05;100.00;101810.16;6226397;28;20046;-72
2021/01/18 08:14:29;;;;;;;36.35;11.82;;;;;;;3.16;100.00;101809.22;6234165;28;20175;-72
2021/01/18 08:17:30;;;;;;;41.88;12.40;;;;;;;3.05;100.00;101804.94;6222048;28;20046;-73
2021/01/18 08:20:31;;;;;;;29.98;10.15;;;;;;;3.13;100.00;101801.44;6224055;28;20430;-74
2021/01/18 08:23:42;;;;;;;36.03;11.32;;;;;;;2.96;100.00;101802.41;6234673;28;20050;-74
2021/01/18 08:26:58;;;;;;;39.13;12.07;;;;;;;3.05;100.00;101802.34;6221694;28;20045;-74
2021/01/18 08:29:58;;;;;;;37.88;12.35;;;;;;;3.26;100.00;101796.16;6230786;28;20061;-74
2021/01/18 08:33:05;;;;;;;62.33;14.30;;;;;;;3.03;100.00;101798.88;6236086;28;20057;-74
2021/01/18 08:36:06;;;;;;;50.17;15.60;;;;;;;2.99;100.00;101793.72;6228298;28;20053;-74
2021/01/18 08:39:11;;;;;;;51.17;15.25;;;;;;;2.96;100.00;101793.75;6222479;28;20046;-73
2021/01/18 08:42:23;;;;;;;46.65;13.48;;;;;;;3.12;100.00;101797.13;6230718;28;20490;-73
2021/01/18 08:45:26;;;;;;;47.28;14.57;;;;;;;3.06;100.00;101787.63;6229673;28;20045;-73
2021/01/18 08:48:29;;;;;;;38.20;14.38;;;;;;;3.07;100.00;101784.16;6229500;28;20404;-73
2021/01/18 08:51:44;;;;;;;46.33;14.73;;;;;;;3.18;100.00;101782.38;6242863;28;20060;-73
2021/01/18 08:54:45;;;;;;;49.65;15.60;;;;;;;3.17;100.00;101778.03;6247865;28;20046;-73
2021/01/18 08:57:52;;;;;;;43.22;14.73;;;;;;;3.11;100.00;101780.69;6223513;28;20133;-73
2021/01/18 09:00:58;;;;;;;50.22;16.77;;;;;;;3.15;100.00;101784.13;6223295;28;20049;-72
2021/01/18 09:04:01;;;;;;;44.03;17.30;;;;;;;3.42;100.00;101781.34;6223787;28;20060;-72
2021/01/18 09:07:02;;;;;;;50.40;15.88;;;;;;;3.51;99.44;101778.69;6224701;28;20042;-71
2021/01/18 09:10:04;;;;;;;46.42;15.75;;;;;;;3.30;100.00;101774.47;6222681;28;20062;-72
2021/01/18 09:13:07;;;;;;;49.10;16.33;;;;;;;3.26;100.00;101779.72;6218660;28;20058;-72
2021/01/18 09:16:10;;;;;;;40.10;17.17;;;;;;;3.22;100.00;101775.41;6222858;28;20042;-72
2021/01/18 09:19:11;;;;;;;57.38;17.83;;;;;;;3.34;100.00;101780.53;6222676;28;20060;-72
2021/01/18 09:22:12;;;;;;;44.72;17.23;;;;;;;3.41;100.00;101783.97;6222812;28;20050;-72
2021/01/18 09:25:15;;;;;;;50.10;16.90;;;;;;;3.35;100.00;101787.44;6222299;28;20053;-72
2021/01/18 09:28:16;;;;;;;51.30;17.08;;;;;;;3.51;99.88;101786.47;6215619;28;20121;-74
2021/01/18 09:31:17;;;;;;;37.92;17.17;;;;;;;3.37;100.00;101783.13;6220286;28;20042;-73
2021/01/18 09:34:19;;;;;;;42.08;16.67;;;;;;;3.53;99.62;101768.25;6222992;28;20049;-73
2021/01/18 09:37:21;;;;;;;43.47;16.10;;;;;;;3.52;99.06;101769.13;6222030;28;20046;-74
2021/01/18 09:40:22;;;;;;;41.40;16.70;;;;;;;3.43;99.38;101774.41;6222580;28;20057;-74
2021/01/18 09:43:26;;;;;;;52.20;18.33;;;;;;;3.52;98.86;101770.00;6221821;28;20499;-73
2021/01/18 09:46:27;;;;;;;44.58;16.48;;;;;;;3.53;98.78;101771.72;6222335;28;20112;-73
2021/01/18 09:49:29;;;;;;;39.67;15.68;;;;;;;3.59;99.35;101772.53;6222156;28;20053;-71
2021/01/18 09:52:30;;;;;;;34.00;15.43;;;;;;;3.58;98.35;101770.81;6222413;28;20502;-72
2021/01/18 09:55:33;;;;;;;42.15;15.65;;;;;;;3.59;98.79;101773.44;6222385;28;20058;-73
2021/01/18 09:58:37;;;;;;;45.03;16.65;;;;;;;3.54;99.42;101781.25;6222460;28;20053;-72
2021/01/18 10:01:40;;;;;;;43.75;16.77;;;;;;;3.43;100.00;101770.06;6221839;28;20050;-72
2021/01/18 10:04:47;;;;;;;48.60;17.40;;;;;;;3.45;99.94;101767.44;6221892;28;20053;-72
2021/01/18 10:07:52;;;;;;;48.00;15.77;;;;;;;3.52;100.00;101764.81;6221774;28;20042;-73
2021/01/18 10:10:53;;;;;;;41.70;17.05;;;;;;;3.44;100.00;101771.78;6222026;28;20053;-72
2021/01/18 10:14:01;;;;;;;39.15;15.93;;;;;;;3.46;100.00;101771.78;6222106;28;20104;-72
2021/01/18 10:17:04;;;;;;;45.75;16.15;;;;;;;3.47;100.00;101765.72;6221304;28;20414;-76
2021/01/18 10:20:08;;;;;;;38.10;16.83;;;;;;;3.51;100.00;101763.09;6220569;28;20046;-71
2021/01/18 10:23:15;;;;;;;48.97;16.83;;;;;;;3.65;100.00;101757.78;6221172;28;20089;-73
2021/01/18 10:26:21;;;;;;;43.47;16.02;;;;;;;3.63;99.18;101751.72;6221347;28;20501;-74
2021/01/18 10:29:23;;;;;;;51.45;16.52;;;;;;;3.53;99.71;101750.94;6221419;28;20154;-73
2021/01/18 10:32:37;;;;;;;43.75;17.17;;;;;;;3.52;99.66;101738.81;6221991;28;20494;-73
2021/01/18 10:35:39;;;;;;;48.22;16.90;;;;;;;3.54;100.00;101739.69;6221482;28;20416;-72
2021/01/18 10:38:40;;;;;;;45.65;15.55;;;;;;;4.01;98.06;101740.09;6220455;28;20057;-72
2021/01/18 10:41:42;;;;;;;42.85;16.05;;;;;;;4.03;97.30;101735.75;6221188;28;20092;-73
2021/01/18 10:44:49;;;;;;;49.35;15.32;;;;;;;3.85;97.28;101726.38;6221676;28;20411;-73
2021/01/18 10:47:55;;;;;;;42.85;16.67;;;;;;;3.71;98.00;101721.31;6220897;28;20042;-72
2021/01/18 10:50:58;;;;;;;48.78;15.85;;;;;;;3.70;98.66;101719.59;6221436;28;20046;-73
2021/01/18 10:54:01;;;;;;;44.70;16.45;;;;;;;3.73;98.71;101710.94;6221351;28;20678;-73
2021/01/18 10:57:17;;;;;;;47.55;18.80;;;;;;;3.71;98.18;101700.53;6221347;28;20491;-73
2021/01/18 11:00:21;;;;;;;41.88;17.73;;;;;;;3.71;98.57;101707.47;6219740;28;20104;-72
2021/01/18 11:03:23;;;;;;;44.90;16.60;;;;;;;3.74;98.38;101695.31;6220911;28;20057;-71
2021/01/18 11:06:25;;;;;;;44.10;15.82;;;;;;;3.81;98.29;101689.19;6220631;28;20046;-72
2021/01/18 11:09:27;;;;;;;47.47;16.42;;;;;;;3.94;96.71;101682.09;6221386;28;20056;-72
2021/01/18 11:12:29;;;;;;;39.35;15.23;;;;;;;3.94;96.82;101686.44;6221949;28;20042;-74
2021/01/18 11:15:34;;;;;;;40.28;15.63;;;;;;;4.14;96.19;101678.41;6221190;28;20046;-73
2021/01/18 11:18:35;;;;;;;45.75;16.45;;;;;;;4.01;96.57;101673.34;6218460;28;20046;-73
2021/01/18 11:21:38;;;;;;;41.22;16.00;;;;;;;4.22;96.89;101676.56;6220400;28;20396;-73
2021/01/18 11:24:38;;;;;;;43.50;16.33;;;;;;;4.13;96.05;101679.28;6221105;28;20104;-72
2021/01/18 11:27:39;;;;;;;50.28;15.00;;;;;;;4.15;96.24;101680.13;6221007;28;20465;-74
2021/01/18 11:30:41;;;;;;;52.40;16.45;;;;;;;4.27;95.93;101674.75;6220241;28;20058;-74
2021/01/18 11:33:44;;;;;;;37.78;14.55;;;;;;;4.31;94.63;101673.84;6220747;28;20077;-73
2021/01/18 11:36:45;;;;;;;42.30;14.80;;;;;;;4.36;94.43;101671.19;6220678;28;20483;-73
2021/01/18 11:39:46;;;;;;;43.67;14.43;;;;;;;4.30;94.50;101667.78;6196320;28;20523;-73
2021/01/18 11:42:47;;;;;;;42.25;14.57;;;;;;;4.23;95.07;101675.72;6224548;28;20119;-71
2021/01/18 11:45:48;;;;;;;41.30;15.45;;;;;;;4.16;95.19;101664.50;6236185;28;20053;-74
2021/01/18 11:48:49;;;;;;;42.75;15.32;;;;;;;4.40;94.60;101659.84;6220212;28;20046;-74
2021/01/18 11:51:51;;;;;;;41.92;15.18;;;;;;;4.51;94.21;101645.84;6224611;28;20065;-73
2021/01/18 11:54:51;;;;;;;34.97;13.90;;;;;;;4.50;93.64;101658.88;6225089;28;20054;-74
2021/01/18 11:57:52;;;;;;;49.47;15.88;;;;;;;4.29;94.86;101657.41;6242732;28;20171;-74
2021/01/18 12:00:53;;;;;;;38.72;15.70;;;;;;;4.46;94.49;101645.03;6242262;28;20053;-74
2021/01/18 12:03:56;;;;;;;35.40;15.20;;;;;;;4.38;94.64;101640.81;6224696;28;20136;-72
2021/01/18 12:06:58;;;;;;;51.85;16.70;;;;;;;4.39;94.38;101639.94;6224100;28;20058;-73
2021/01/18 12:09:59;;;;;;;49.03;14.85;;;;;;;4.42;94.51;101634.69;6224697;28;20053;-73
2021/01/18 12:13:00;;;;;;;51.75;15.90;;;;;;;4.42;94.57;101619.94;6224231;28;20045;-75
2021/01/18 12:16:01;;;;;;;44.03;16.85;;;;;;;4.36;94.61;101620.03;6224233;28;20454;-75
2021/01/18 12:19:02;;;;;;;47.00;15.75;;;;;;;4.41;94.31;101618.22;6223075;28;20045;-75
2021/01/18 12:22:04;;;;;;;41.38;15.95;;;;;;;4.55;94.10;101613.69;6224689;28;20124;-78
2021/01/18 12:25:06;;;;;;;39.33;16.05;;;;;;;4.42;94.58;101617.34;6224475;28;20050;-75
2021/01/18 12:28:07;;;;;;;40.75;15.57;;;;;;;4.46;94.28;101616.41;6224290;28;20053;-76
2021/01/18 12:31:08;;;;;;;45.25;17.30;;;;;;;4.64;94.47;101614.44;6217296;28;20042;-74
2021/01/18 12:34:08;;;;;;;42.58;16.33;;;;;;;4.42;94.94;101613.88;6220472;28;20046;-73
2021/01/18 12:37:10;;;;;;;43.38;17.77;;;;;;;4.38;95.51;101607.00;6222713;28;20050;-74
2021/01/18 12:40:16;;;;;;;47.05;17.30;;;;;;;4.39;96.14;101609.56;6222739;28;20050;-75
2021/01/18 12:43:17;;;;;;;41.78;16.85;;;;;;;4.61;95.49;101607.50;6224242;28;20084;-72
2021/01/18 12:46:18;;;;;;;54.75;18.35;;;;;;;4.48;95.75;101601.63;6223209;28;20042;-74
2021/01/18 12:49:19;;;;;;;44.72;18.70;;;;;;;4.19;96.91;101602.03;6222737;28;20061;-74
2021/01/18 12:52:21;;;;;;;48.95;19.67;;;;;;;4.11;97.80;101592.59;6221808;28;20419;-72
2021/01/18 12:55:22;;;;;;;52.10;19.80;;;;;;;4.36;97.85;101587.91;6221115;28;20433;-74
2021/01/18 12:58:23;;;;;;;53.00;20.08;;;;;;;4.23;98.53;101589.84;6247940;28;20128;-72
2021/01/18 13:01:28;;;;;;;50.53;20.08;;;;;;;4.07;98.73;101590.03;6232812;28;20561;-71
2021/01/18 13:04:28;;;;;;;55.78;20.30;;;;;;;3.99;99.63;101578.88;6223490;28;20052;-71
2021/01/18 13:07:30;;;;;;;51.35;20.02;;;;;;;4.01;100.00;101584.06;6222715;28;20046;-71
2021/01/18 13:10:31;;;;;;;52.15;20.80;;;;;;;3.94;99.99;101579.81;6222912;28;20449;-72
2021/01/18 13:13:34;;;;;;;50.53;20.42;;;;;;;3.97;100.00;101569.38;6241234;28;20057;-71
2021/01/18 13:16:35;;;;;;;61.65;20.90;;;;;;;4.10;100.00;101562.28;6223362;28;20050;-72
2021/01/18 13:19:36;;;;;;;61.22;20.23;;;;;;;4.11;99.19;101551.84;6222552;28;20053;-72
2021/01/18 13:22:38;;;;;;;60.72;20.30;;;;;;;4.11;99.24;101553.59;6221993;28;20523;-73
2021/01/18 13:25:39;;;;;;;44.75;18.63;;;;;;;4.14;97.97;101554.41;6220888;28;20478;-73
2021/01/18 13:28:41;;;;;;;42.28;17.70;;;;;;;4.10;98.24;101555.34;6221967;28;20058;-71
2021/01/18 13:31:44;;;;;;;46.40;18.98;;;;;;;4.43;96.58;101553.13;6222931;28;20046;-73
2021/01/18 13:34:44;;;;;;;40.42;16.40;;;;;;;4.28;96.93;101557.69;6220840;28;20046;-74
2021/01/18 13:37:46;;;;;;;58.35;18.38;;;;;;;4.20;97.60;101561.28;6219522;28;20100;-72
2021/01/18 13:40:47;;;;;;;47.45;16.85;;;;;;;4.41;98.00;101550.56;6222263;28;20050;-74
2021/01/18 13:43:48;;;;;;;50.72;16.15;;;;;;;4.24;98.07;101550.81;6222417;28;20049;-74
2021/01/18 13:46:49;;;;;;;44.65;17.02;;;;;;;3.93;99.33;101550.34;6222494;28;20057;-76
2021/01/18 13:49:50;;;;;;;44.53;15.57;;;;;;;4.15;99.69;101543.13;6222378;28;20050;-73
2021/01/18 13:52:52;;;;;;;39.35;16.30;;;;;;;3.88;100.00;101539.16;6222632;28;20081;-75
2021/01/18 13:55:52;;;;;;;36.70;16.05;;;;;;;3.81;100.00;101533.19;6222282;28;20104;-74
2021/01/18 13:58:55;;;;;;;44.05;17.83;;;;;;;3.75;100.00;101533.25;6222041;28;20050;-75